sensor_id;sensor_type;location;lat;lon;timestamp;P1;durP1;ratioP1;P2;durP2;ratioP2
77598;SDS011;66758;52.078;5.070;2023-05-16T00:00:21;10.50;;;1.80;;
77598;SDS011;66758;52.078;5.070;2023-05-16T00:02:49;10.48;;;2.20;;
77598;SDS011;66758;52.078;5.070;2023-05-16T00:05:15;8.95;;;1.88;;
77598;SDS011;66758;52.078;5.070;2023-05-16T00:07:41;11.77;;;1.10;;
77598;SDS011;66758;52.078;5.070;2023-05-16T00:10:08;11.30;;;2.13;;
77598;SDS011;66758;52.078;5.070;2023-05-16T00:12:34;9.65;;;1.77;;
77598;SDS011;66758;52.078;5.070;2023-05-16T00:15:01;12.30;;;1.73;;
77598;SDS011;66758;52.078;5.070;2023-05-16T00:17:26;9.00;;;1.60;;
77598;SDS011;66758;52.078;5.070;2023-05-16T00:19:53;14.10;;;2.13;;
77598;SDS011;66758;52.078;5.070;2023-05-16T00:22:22;15.40;;;1.73;;
77598;SDS011;66758;52.078;5.070;2023-05-16T00:24:48;15.30;;;1.85;;
77598;SDS011;66758;52.078;5.070;2023-05-16T00:27:14;8.37;;;1.60;;
77598;SDS011;66758;52.078;5.070;2023-05-16T00:29:39;12.00;;;2.10;;
77598;SDS011;66758;52.078;5.070;2023-05-16T00:32:05;9.57;;;2.57;;
77598;SDS011;66758;52.078;5.070;2023-05-16T00:34:32;11.50;;;2.33;;
77598;SDS011;66758;52.078;5.070;2023-05-16T00:36:58;18.83;;;2.15;;
77598;SDS011;66758;52.078;5.070;2023-05-16T00:39:24;6.77;;;1.83;;
77598;SDS011;66758;52.078;5.070;2023-05-16T00:41:49;10.20;;;1.80;;
77598;SDS011;66758;52.078;5.070;2023-05-16T00:44:15;9.50;;;2.03;;
77598;SDS011;66758;52.078;5.070;2023-05-16T00:46:40;9.13;;;1.93;;
77598;SDS011;66758;52.078;5.070;2023-05-16T00:49:06;11.45;;;2.15;;
77598;SDS011;66758;52.078;5.070;2023-05-16T00:51:32;13.80;;;1.70;;
77598;SDS011;66758;52.078;5.070;2023-05-16T00:53:58;8.18;;;1.52;;
77598;SDS011;66758;52.078;5.070;2023-05-16T00:56:24;13.45;;;1.95;;
77598;SDS011;66758;52.078;5.070;2023-05-16T00:58:49;16.77;;;2.57;;
77598;SDS011;66758;52.078;5.070;2023-05-16T01:01:15;8.93;;;1.73;;
77598;SDS011;66758;52.078;5.070;2023-05-16T01:03:41;12.80;;;1.90;;
77598;SDS011;66758;52.078;5.070;2023-05-16T01:06:09;16.70;;;2.10;;
77598;SDS011;66758;52.078;5.070;2023-05-16T01:08:36;11.27;;;1.63;;
77598;SDS011;66758;52.078;5.070;2023-05-16T01:11:05;14.52;;;1.75;;
77598;SDS011;66758;52.078;5.070;2023-05-16T01:16:30;13.00;;;2.08;;
77598;SDS011;66758;52.078;5.070;2023-05-16T01:22:04;10.07;;;1.73;;
77598;SDS011;66758;52.078;5.070;2023-05-16T01:24:43;9.52;;;2.05;;
77598;SDS011;66758;52.078;5.070;2023-05-16T01:27:23;20.80;;;2.13;;
77598;SDS011;66758;52.078;5.070;2023-05-16T01:29:54;12.02;;;2.20;;
77598;SDS011;66758;52.078;5.070;2023-05-16T01:32:20;11.20;;;1.90;;
77598;SDS011;66758;52.078;5.070;2023-05-16T01:34:48;12.93;;;2.05;;
77598;SDS011;66758;52.078;5.070;2023-05-16T01:37:18;15.05;;;1.95;;
77598;SDS011;66758;52.078;5.070;2023-05-16T01:39:56;11.27;;;1.80;;
77598;SDS011;66758;52.078;5.070;2023-05-16T01:42:29;9.30;;;2.47;;
77598;SDS011;66758;52.078;5.070;2023-05-16T01:44:59;11.63;;;2.60;;
77598;SDS011;66758;52.078;5.070;2023-05-16T01:47:34;12.40;;;2.50;;
77598;SDS011;66758;52.078;5.070;2023-05-16T01:50:07;15.00;;;2.78;;
77598;SDS011;66758;52.078;5.070;2023-05-16T01:52:55;13.97;;;2.50;;
77598;SDS011;66758;52.078;5.070;2023-05-16T01:55:41;12.55;;;2.50;;
77598;SDS011;66758;52.078;5.070;2023-05-16T01:58:10;14.50;;;1.75;;
77598;SDS011;66758;52.078;5.070;2023-05-16T02:00:38;10.35;;;2.58;;
77598;SDS011;66758;52.078;5.070;2023-05-16T02:03:04;14.60;;;2.83;;
77598;SDS011;66758;52.078;5.070;2023-05-16T02:05:30;14.53;;;2.37;;
77598;SDS011;66758;52.078;5.070;2023-05-16T02:07:55;14.07;;;2.42;;
77598;SDS011;66758;52.078;5.070;2023-05-16T02:10:21;16.60;;;2.50;;
77598;SDS011;66758;52.078;5.070;2023-05-16T02:12:47;12.45;;;2.50;;
77598;SDS011;66758;52.078;5.070;2023-05-16T02:15:13;12.23;;;2.20;;
77598;SDS011;66758;52.078;5.070;2023-05-16T02:17:38;9.02;;;1.92;;
77598;SDS011;66758;52.078;5.070;2023-05-16T02:20:05;16.77;;;2.87;;
77598;SDS011;66758;52.078;5.070;2023-05-16T02:22:34;16.02;;;2.88;;
77598;SDS011;66758;52.078;5.070;2023-05-16T02:25:01;9.13;;;2.10;;
77598;SDS011;66758;52.078;5.070;2023-05-16T02:27:27;7.25;;;2.17;;
77598;SDS011;66758;52.078;5.070;2023-05-16T02:29:53;13.18;;;2.50;;
77598;SDS011;66758;52.078;5.070;2023-05-16T02:32:19;14.07;;;2.70;;
77598;SDS011;66758;52.078;5.070;2023-05-16T02:34:44;14.73;;;3.23;;
77598;SDS011;66758;52.078;5.070;2023-05-16T02:37:09;8.83;;;2.50;;
77598;SDS011;66758;52.078;5.070;2023-05-16T02:39:35;7.15;;;2.30;;
77598;SDS011;66758;52.078;5.070;2023-05-16T02:42:02;12.10;;;2.40;;
77598;SDS011;66758;52.078;5.070;2023-05-16T02:44:27;9.47;;;2.23;;
77598;SDS011;66758;52.078;5.070;2023-05-16T02:46:53;8.50;;;2.00;;
77598;SDS011;66758;52.078;5.070;2023-05-16T02:49:18;16.37;;;2.83;;
77598;SDS011;66758;52.078;5.070;2023-05-16T02:51:44;12.73;;;2.47;;
77598;SDS011;66758;52.078;5.070;2023-05-16T02:54:09;12.10;;;3.08;;
77598;SDS011;66758;52.078;5.070;2023-05-16T02:56:35;15.27;;;2.50;;
77598;SDS011;66758;52.078;5.070;2023-05-16T02:59:01;9.60;;;2.10;;
77598;SDS011;66758;52.078;5.070;2023-05-16T03:01:28;10.25;;;2.38;;
77598;SDS011;66758;52.078;5.070;2023-05-16T03:03:53;10.33;;;1.73;;
77598;SDS011;66758;52.078;5.070;2023-05-16T03:06:19;13.73;;;2.45;;
77598;SDS011;66758;52.078;5.070;2023-05-16T03:08:44;13.77;;;2.67;;
77598;SDS011;66758;52.078;5.070;2023-05-16T03:11:10;9.67;;;2.17;;
77598;SDS011;66758;52.078;5.070;2023-05-16T03:13:35;11.30;;;2.60;;
77598;SDS011;66758;52.078;5.070;2023-05-16T03:16:01;13.97;;;2.53;;
77598;SDS011;66758;52.078;5.070;2023-05-16T03:18:27;9.88;;;2.17;;
77598;SDS011;66758;52.078;5.070;2023-05-16T03:20:53;12.17;;;2.80;;
77598;SDS011;66758;52.078;5.070;2023-05-16T03:23:19;12.43;;;2.10;;
77598;SDS011;66758;52.078;5.070;2023-05-16T03:25:45;7.00;;;2.10;;
77598;SDS011;66758;52.078;5.070;2023-05-16T03:28:10;9.00;;;3.47;;
77598;SDS011;66758;52.078;5.070;2023-05-16T03:30:36;11.70;;;2.73;;
77598;SDS011;66758;52.078;5.070;2023-05-16T03:33:02;12.27;;;2.50;;
77598;SDS011;66758;52.078;5.070;2023-05-16T03:35:28;11.15;;;4.45;;
77598;SDS011;66758;52.078;5.070;2023-05-16T03:37:55;11.40;;;2.40;;
77598;SDS011;66758;52.078;5.070;2023-05-16T03:40:20;9.80;;;3.35;;
77598;SDS011;66758;52.078;5.070;2023-05-16T03:42:46;10.87;;;2.60;;
77598;SDS011;66758;52.078;5.070;2023-05-16T03:45:12;7.93;;;2.80;;
77598;SDS011;66758;52.078;5.070;2023-05-16T03:47:37;13.90;;;2.60;;
77598;SDS011;66758;52.078;5.070;2023-05-16T03:50:03;11.07;;;2.30;;
77598;SDS011;66758;52.078;5.070;2023-05-16T03:52:29;11.00;;;2.38;;
77598;SDS011;66758;52.078;5.070;2023-05-16T03:54:55;11.60;;;2.57;;
77598;SDS011;66758;52.078;5.070;2023-05-16T03:57:21;10.82;;;2.45;;
77598;SDS011;66758;52.078;5.070;2023-05-16T03:59:46;8.60;;;2.67;;
77598;SDS011;66758;52.078;5.070;2023-05-16T04:02:12;14.48;;;2.50;;
77598;SDS011;66758;52.078;5.070;2023-05-16T04:04:37;11.30;;;2.60;;
77598;SDS011;66758;52.078;5.070;2023-05-16T04:07:03;10.90;;;3.43;;
77598;SDS011;66758;52.078;5.070;2023-05-16T04:09:28;11.93;;;2.72;;
77598;SDS011;66758;52.078;5.070;2023-05-16T04:11:54;6.70;;;2.03;;
77598;SDS011;66758;52.078;5.070;2023-05-16T04:14:21;9.70;;;1.90;;
77598;SDS011;66758;52.078;5.070;2023-05-16T04:16:47;8.05;;;2.22;;
77598;SDS011;66758;52.078;5.070;2023-05-16T04:19:12;8.93;;;2.17;;
77598;SDS011;66758;52.078;5.070;2023-05-16T04:21:38;11.07;;;2.30;;
77598;SDS011;66758;52.078;5.070;2023-05-16T04:24:03;11.17;;;1.77;;
77598;SDS011;66758;52.078;5.070;2023-05-16T04:26:29;13.27;;;2.50;;
77598;SDS011;66758;52.078;5.070;2023-05-16T04:28:56;12.37;;;2.40;;
77598;SDS011;66758;52.078;5.070;2023-05-16T04:31:23;8.00;;;2.13;;
77598;SDS011;66758;52.078;5.070;2023-05-16T04:33:49;9.98;;;2.17;;
77598;SDS011;66758;52.078;5.070;2023-05-16T04:36:15;7.37;;;1.83;;
77598;SDS011;66758;52.078;5.070;2023-05-16T04:38:40;9.55;;;2.40;;
77598;SDS011;66758;52.078;5.070;2023-05-16T04:41:06;12.20;;;2.43;;
77598;SDS011;66758;52.078;5.070;2023-05-16T04:43:32;12.15;;;2.08;;
77598;SDS011;66758;52.078;5.070;2023-05-16T04:45:58;5.47;;;2.20;;
77598;SDS011;66758;52.078;5.070;2023-05-16T04:48:23;12.10;;;2.27;;
77598;SDS011;66758;52.078;5.070;2023-05-16T04:50:49;10.27;;;2.40;;
77598;SDS011;66758;52.078;5.070;2023-05-16T04:53:15;9.50;;;2.22;;
77598;SDS011;66758;52.078;5.070;2023-05-16T04:55:40;9.90;;;1.87;;
77598;SDS011;66758;52.078;5.070;2023-05-16T04:58:05;13.37;;;2.10;;
77598;SDS011;66758;52.078;5.070;2023-05-16T05:00:32;13.77;;;2.78;;
77598;SDS011;66758;52.078;5.070;2023-05-16T05:02:57;7.13;;;1.63;;
77598;SDS011;66758;52.078;5.070;2023-05-16T05:05:23;5.83;;;1.90;;
77598;SDS011;66758;52.078;5.070;2023-05-16T05:07:49;8.07;;;1.88;;
77598;SDS011;66758;52.078;5.070;2023-05-16T05:10:15;8.55;;;2.10;;
77598;SDS011;66758;52.078;5.070;2023-05-16T05:12:41;11.20;;;1.60;;
77598;SDS011;66758;52.078;5.070;2023-05-16T05:15:07;12.07;;;1.73;;
77598;SDS011;66758;52.078;5.070;2023-05-16T05:17:33;10.88;;;2.00;;
77598;SDS011;66758;52.078;5.070;2023-05-16T05:19:58;8.30;;;2.03;;
77598;SDS011;66758;52.078;5.070;2023-05-16T05:22:31;10.60;;;2.10;;
77598;SDS011;66758;52.078;5.070;2023-05-16T05:24:57;12.60;;;2.20;;
77598;SDS011;66758;52.078;5.070;2023-05-16T05:27:22;18.17;;;2.67;;
77598;SDS011;66758;52.078;5.070;2023-05-16T05:29:47;14.77;;;2.13;;
77598;SDS011;66758;52.078;5.070;2023-05-16T05:32:13;9.23;;;2.17;;
77598;SDS011;66758;52.078;5.070;2023-05-16T05:34:38;7.53;;;1.90;;
77598;SDS011;66758;52.078;5.070;2023-05-16T05:37:03;10.17;;;2.17;;
77598;SDS011;66758;52.078;5.070;2023-05-16T05:39:29;11.57;;;1.97;;
77598;SDS011;66758;52.078;5.070;2023-05-16T05:41:54;12.80;;;2.30;;
77598;SDS011;66758;52.078;5.070;2023-05-16T05:44:20;12.52;;;2.20;;
77598;SDS011;66758;52.078;5.070;2023-05-16T05:46:45;6.97;;;2.10;;
77598;SDS011;66758;52.078;5.070;2023-05-16T05:49:11;7.03;;;1.57;;
77598;SDS011;66758;52.078;5.070;2023-05-16T05:51:37;10.75;;;1.63;;
77598;SDS011;66758;52.078;5.070;2023-05-16T05:54:02;9.60;;;1.60;;
77598;SDS011;66758;52.078;5.070;2023-05-16T05:56:28;8.97;;;1.60;;
77598;SDS011;66758;52.078;5.070;2023-05-16T05:58:54;16.07;;;6.00;;
77598;SDS011;66758;52.078;5.070;2023-05-16T06:01:20;10.55;;;2.05;;
77598;SDS011;66758;52.078;5.070;2023-05-16T06:03:46;7.93;;;1.55;;
77598;SDS011;66758;52.078;5.070;2023-05-16T06:06:12;10.77;;;1.53;;
77598;SDS011;66758;52.078;5.070;2023-05-16T06:08:39;7.90;;;1.40;;
77598;SDS011;66758;52.078;5.070;2023-05-16T06:11:04;11.60;;;1.40;;
77598;SDS011;66758;52.078;5.070;2023-05-16T06:13:30;5.67;;;1.50;;
77598;SDS011;66758;52.078;5.070;2023-05-16T06:15:55;9.10;;;1.77;;
77598;SDS011;66758;52.078;5.070;2023-05-16T06:18:21;7.15;;;1.65;;
77598;SDS011;66758;52.078;5.070;2023-05-16T06:20:46;6.23;;;1.50;;
77598;SDS011;66758;52.078;5.070;2023-05-16T06:23:12;10.53;;;1.53;;
77598;SDS011;66758;52.078;5.070;2023-05-16T06:25:37;15.80;;;1.75;;
77598;SDS011;66758;52.078;5.070;2023-05-16T06:28:03;12.20;;;4.03;;
77598;SDS011;66758;52.078;5.070;2023-05-16T06:30:28;6.47;;;1.40;;
77598;SDS011;66758;52.078;5.070;2023-05-16T06:32:54;7.13;;;1.45;;
77598;SDS011;66758;52.078;5.070;2023-05-16T06:35:19;12.63;;;2.30;;
77598;SDS011;66758;52.078;5.070;2023-05-16T06:37:44;11.20;;;2.03;;
77598;SDS011;66758;52.078;5.070;2023-05-16T06:40:10;11.33;;;1.43;;
77598;SDS011;66758;52.078;5.070;2023-05-16T06:42:36;8.60;;;1.33;;
77598;SDS011;66758;52.078;5.070;2023-05-16T06:45:01;6.63;;;1.63;;
77598;SDS011;66758;52.078;5.070;2023-05-16T06:47:27;13.77;;;1.20;;
77598;SDS011;66758;52.078;5.070;2023-05-16T06:49:53;6.73;;;1.10;;
77598;SDS011;66758;52.078;5.070;2023-05-16T06:52:18;16.05;;;1.80;;
77598;SDS011;66758;52.078;5.070;2023-05-16T06:54:43;10.17;;;3.10;;
77598;SDS011;66758;52.078;5.070;2023-05-16T06:57:09;10.83;;;1.40;;
77598;SDS011;66758;52.078;5.070;2023-05-16T06:59:34;9.10;;;1.93;;
77598;SDS011;66758;52.078;5.070;2023-05-16T07:02:00;4.70;;;0.80;;
77598;SDS011;66758;52.078;5.070;2023-05-16T07:04:26;8.55;;;0.93;;
77598;SDS011;66758;52.078;5.070;2023-05-16T07:06:52;22.20;;;2.00;;
77598;SDS011;66758;52.078;5.070;2023-05-16T07:09:18;10.63;;;1.50;;
77598;SDS011;66758;52.078;5.070;2023-05-16T07:11:43;9.23;;;1.33;;
77598;SDS011;66758;52.078;5.070;2023-05-16T07:14:08;10.03;;;1.30;;
77598;SDS011;66758;52.078;5.070;2023-05-16T07:16:34;7.60;;;1.50;;
77598;SDS011;66758;52.078;5.070;2023-05-16T07:19:00;5.83;;;1.20;;
77598;SDS011;66758;52.078;5.070;2023-05-16T07:21:25;5.60;;;1.00;;
77598;SDS011;66758;52.078;5.070;2023-05-16T07:23:51;8.90;;;1.57;;
77598;SDS011;66758;52.078;5.070;2023-05-16T07:26:16;6.90;;;1.02;;
77598;SDS011;66758;52.078;5.070;2023-05-16T07:28:42;7.30;;;0.90;;
77598;SDS011;66758;52.078;5.070;2023-05-16T07:31:08;8.57;;;1.43;;
77598;SDS011;66758;52.078;5.070;2023-05-16T07:33:33;8.18;;;1.20;;
77598;SDS011;66758;52.078;5.070;2023-05-16T07:35:58;4.87;;;0.80;;
77598;SDS011;66758;52.078;5.070;2023-05-16T07:38:25;6.38;;;1.30;;
77598;SDS011;66758;52.078;5.070;2023-05-16T07:40:50;4.13;;;0.77;;
77598;SDS011;66758;52.078;5.070;2023-05-16T07:43:16;10.48;;;1.20;;
77598;SDS011;66758;52.078;5.070;2023-05-16T07:45:42;6.37;;;1.00;;
77598;SDS011;66758;52.078;5.070;2023-05-16T07:48:07;5.93;;;1.40;;
77598;SDS011;66758;52.078;5.070;2023-05-16T07:50:33;6.03;;;1.10;;
77598;SDS011;66758;52.078;5.070;2023-05-16T07:52:59;6.45;;;1.60;;
77598;SDS011;66758;52.078;5.070;2023-05-16T07:55:24;8.90;;;1.23;;
77598;SDS011;66758;52.078;5.070;2023-05-16T07:57:50;11.93;;;1.40;;
77598;SDS011;66758;52.078;5.070;2023-05-16T08:00:15;7.67;;;1.63;;
77598;SDS011;66758;52.078;5.070;2023-05-16T08:02:42;6.10;;;1.43;;
77598;SDS011;66758;52.078;5.070;2023-05-16T08:05:07;8.02;;;2.58;;
77598;SDS011;66758;52.078;5.070;2023-05-16T08:07:33;6.13;;;1.63;;
77598;SDS011;66758;52.078;5.070;2023-05-16T08:09:58;6.87;;;1.40;;
77598;SDS011;66758;52.078;5.070;2023-05-16T08:12:24;7.00;;;1.20;;
77598;SDS011;66758;52.078;5.070;2023-05-16T08:14:51;6.03;;;1.27;;
77598;SDS011;66758;52.078;5.070;2023-05-16T08:17:16;8.50;;;1.63;;
77598;SDS011;66758;52.078;5.070;2023-05-16T08:19:41;8.30;;;0.97;;
77598;SDS011;66758;52.078;5.070;2023-05-16T08:22:07;5.67;;;1.60;;
77598;SDS011;66758;52.078;5.070;2023-05-16T08:24:33;6.75;;;1.00;;
77598;SDS011;66758;52.078;5.070;2023-05-16T08:26:59;5.25;;;1.00;;
77598;SDS011;66758;52.078;5.070;2023-05-16T08:29:25;9.47;;;1.13;;
77598;SDS011;66758;52.078;5.070;2023-05-16T08:31:50;51.23;;;3.40;;
77598;SDS011;66758;52.078;5.070;2023-05-16T08:34:16;22.08;;;1.55;;
77598;SDS011;66758;52.078;5.070;2023-05-16T08:36:41;7.90;;;1.63;;
77598;SDS011;66758;52.078;5.070;2023-05-16T08:39:06;6.23;;;1.20;;
77598;SDS011;66758;52.078;5.070;2023-05-16T08:41:34;9.60;;;1.65;;
77598;SDS011;66758;52.078;5.070;2023-05-16T08:44:00;6.03;;;1.17;;
77598;SDS011;66758;52.078;5.070;2023-05-16T08:46:25;5.68;;;1.40;;
77598;SDS011;66758;52.078;5.070;2023-05-16T08:48:53;6.57;;;1.00;;
77598;SDS011;66758;52.078;5.070;2023-05-16T08:51:19;5.63;;;1.00;;
77598;SDS011;66758;52.078;5.070;2023-05-16T08:53:53;8.77;;;1.38;;
77598;SDS011;66758;52.078;5.070;2023-05-16T08:56:24;5.85;;;1.20;;
77598;SDS011;66758;52.078;5.070;2023-05-16T08:58:50;9.05;;;1.15;;
77598;SDS011;66758;52.078;5.070;2023-05-16T09:01:19;4.93;;;1.10;;
77598;SDS011;66758;52.078;5.070;2023-05-16T09:03:46;5.95;;;1.20;;
77598;SDS011;66758;52.078;5.070;2023-05-16T09:06:12;7.20;;;1.15;;
77598;SDS011;66758;52.078;5.070;2023-05-16T09:08:37;9.53;;;1.10;;
77598;SDS011;66758;52.078;5.070;2023-05-16T09:11:03;4.95;;;1.30;;
77598;SDS011;66758;52.078;5.070;2023-05-16T09:13:30;7.67;;;0.83;;
77598;SDS011;66758;52.078;5.070;2023-05-16T09:16:14;6.03;;;1.42;;
77598;SDS011;66758;52.078;5.070;2023-05-16T09:18:44;2.50;;;0.90;;
77598;SDS011;66758;52.078;5.070;2023-05-16T09:21:11;16.35;;;1.80;;
77598;SDS011;66758;52.078;5.070;2023-05-16T09:23:37;5.80;;;1.15;;
77598;SDS011;66758;52.078;5.070;2023-05-16T09:26:05;8.10;;;1.20;;
77598;SDS011;66758;52.078;5.070;2023-05-16T09:28:36;8.13;;;1.35;;
77598;SDS011;66758;52.078;5.070;2023-05-16T09:31:18;10.15;;;1.17;;
77598;SDS011;66758;52.078;5.070;2023-05-16T09:33:51;7.75;;;1.70;;
77598;SDS011;66758;52.078;5.070;2023-05-16T09:36:24;6.80;;;1.20;;
77598;SDS011;66758;52.078;5.070;2023-05-16T09:38:50;9.23;;;1.00;;
77598;SDS011;66758;52.078;5.070;2023-05-16T09:41:16;8.18;;;1.13;;
77598;SDS011;66758;52.078;5.070;2023-05-16T09:43:42;8.90;;;1.10;;
77598;SDS011;66758;52.078;5.070;2023-05-16T09:46:15;8.33;;;0.93;;
77598;SDS011;66758;52.078;5.070;2023-05-16T09:48:44;7.50;;;1.20;;
77598;SDS011;66758;52.078;5.070;2023-05-16T09:51:13;7.03;;;1.73;;
77598;SDS011;66758;52.078;5.070;2023-05-16T09:53:39;6.55;;;1.33;;
77598;SDS011;66758;52.078;5.070;2023-05-16T09:56:06;7.32;;;1.35;;
77598;SDS011;66758;52.078;5.070;2023-05-16T09:58:36;6.07;;;1.30;;
77598;SDS011;66758;52.078;5.070;2023-05-16T10:01:05;8.07;;;1.50;;
77598;SDS011;66758;52.078;5.070;2023-05-16T10:03:33;15.48;;;1.60;;
77598;SDS011;66758;52.078;5.070;2023-05-16T10:06:00;8.95;;;1.05;;
77598;SDS011;66758;52.078;5.070;2023-05-16T10:08:26;9.45;;;1.60;;
77598;SDS011;66758;52.078;5.070;2023-05-16T10:10:55;7.97;;;1.27;;
77598;SDS011;66758;52.078;5.070;2023-05-16T10:13:22;5.40;;;1.17;;
77598;SDS011;66758;52.078;5.070;2023-05-16T10:15:54;8.98;;;1.17;;
77598;SDS011;66758;52.078;5.070;2023-05-16T10:18:21;5.40;;;1.38;;
77598;SDS011;66758;52.078;5.070;2023-05-16T10:20:50;6.17;;;1.00;;
77598;SDS011;66758;52.078;5.070;2023-05-16T10:23:18;4.40;;;0.90;;
77598;SDS011;66758;52.078;5.070;2023-05-16T10:25:46;5.72;;;1.20;;
77598;SDS011;66758;52.078;5.070;2023-05-16T10:28:13;6.75;;;1.00;;
77598;SDS011;66758;52.078;5.070;2023-05-16T10:30:40;7.47;;;1.20;;
77598;SDS011;66758;52.078;5.070;2023-05-16T10:33:12;9.30;;;0.90;;
77598;SDS011;66758;52.078;5.070;2023-05-16T10:35:39;5.43;;;0.90;;
77598;SDS011;66758;52.078;5.070;2023-05-16T10:38:05;5.25;;;1.10;;
77598;SDS011;66758;52.078;5.070;2023-05-16T10:40:33;7.60;;;1.02;;
77598;SDS011;66758;52.078;5.070;2023-05-16T10:43:01;6.20;;;0.90;;
77598;SDS011;66758;52.078;5.070;2023-05-16T10:45:28;5.03;;;1.00;;
77598;SDS011;66758;52.078;5.070;2023-05-16T10:47:57;4.93;;;0.85;;
77598;SDS011;66758;52.078;5.070;2023-05-16T10:53:12;5.40;;;1.20;;
77598;SDS011;66758;52.078;5.070;2023-05-16T10:56:24;5.90;;;1.10;;
77598;SDS011;66758;52.078;5.070;2023-05-16T11:01:17;4.15;;;1.13;;
77598;SDS011;66758;52.078;5.070;2023-05-16T11:24:49;6.77;;;1.30;;
77598;SDS011;66758;52.078;5.070;2023-05-16T11:27:19;5.10;;;1.20;;
77598;SDS011;66758;52.078;5.070;2023-05-16T11:29:46;10.20;;;1.27;;
77598;SDS011;66758;52.078;5.070;2023-05-16T11:32:12;7.17;;;1.50;;
77598;SDS011;66758;52.078;5.070;2023-05-16T11:34:38;7.18;;;1.50;;
77598;SDS011;66758;52.078;5.070;2023-05-16T11:37:04;3.83;;;0.77;;
77598;SDS011;66758;52.078;5.070;2023-05-16T11:39:31;5.22;;;1.30;;
77598;SDS011;66758;52.078;5.070;2023-05-16T11:41:56;9.10;;;1.53;;
77598;SDS011;66758;52.078;5.070;2023-05-16T11:44:22;7.13;;;1.25;;
77598;SDS011;66758;52.078;5.070;2023-05-16T11:46:47;4.87;;;1.07;;
77598;SDS011;66758;52.078;5.070;2023-05-16T11:49:13;6.40;;;0.90;;
77598;SDS011;66758;52.078;5.070;2023-05-16T11:51:39;6.15;;;1.10;;
77598;SDS011;66758;52.078;5.070;2023-05-16T11:54:06;7.30;;;1.13;;
77598;SDS011;66758;52.078;5.070;2023-05-16T11:56:36;4.75;;;0.98;;
77598;SDS011;66758;52.078;5.070;2023-05-16T11:59:02;5.50;;;1.17;;
77598;SDS011;66758;52.078;5.070;2023-05-16T12:01:32;5.43;;;0.98;;
77598;SDS011;66758;52.078;5.070;2023-05-16T12:04:06;3.80;;;1.20;;
77598;SDS011;66758;52.078;5.070;2023-05-16T12:06:33;4.53;;;1.37;;
77598;SDS011;66758;52.078;5.070;2023-05-16T12:08:59;5.93;;;1.23;;
77598;SDS011;66758;52.078;5.070;2023-05-16T12:11:28;7.70;;;1.20;;
77598;SDS011;66758;52.078;5.070;2023-05-16T12:13:54;8.30;;;1.42;;
77598;SDS011;66758;52.078;5.070;2023-05-16T12:16:20;3.30;;;0.87;;
77598;SDS011;66758;52.078;5.070;2023-05-16T12:18:46;4.57;;;1.13;;
77598;SDS011;66758;52.078;5.070;2023-05-16T12:21:11;6.60;;;1.27;;
77598;SDS011;66758;52.078;5.070;2023-05-16T12:23:37;9.40;;;1.60;;
77598;SDS011;66758;52.078;5.070;2023-05-16T12:26:03;8.48;;;0.90;;
77598;SDS011;66758;52.078;5.070;2023-05-16T12:28:32;5.05;;;1.00;;
77598;SDS011;66758;52.078;5.070;2023-05-16T12:30:58;10.73;;;1.30;;
77598;SDS011;66758;52.078;5.070;2023-05-16T12:33:24;5.53;;;1.10;;
77598;SDS011;66758;52.078;5.070;2023-05-16T12:35:49;4.77;;;1.00;;
77598;SDS011;66758;52.078;5.070;2023-05-16T12:38:16;4.95;;;1.08;;
77598;SDS011;66758;52.078;5.070;2023-05-16T12:40:43;4.85;;;0.95;;
77598;SDS011;66758;52.078;5.070;2023-05-16T12:43:14;6.47;;;1.20;;
77598;SDS011;66758;52.078;5.070;2023-05-16T12:45:49;9.57;;;1.23;;
77598;SDS011;66758;52.078;5.070;2023-05-16T12:48:16;5.30;;;1.27;;
77598;SDS011;66758;52.078;5.070;2023-05-16T12:50:42;5.30;;;1.08;;
77598;SDS011;66758;52.078;5.070;2023-05-16T12:53:14;7.88;;;1.40;;
77598;SDS011;66758;52.078;5.070;2023-05-16T12:55:41;7.00;;;1.30;;
77598;SDS011;66758;52.078;5.070;2023-05-16T12:58:08;6.13;;;0.95;;
77598;SDS011;66758;52.078;5.070;2023-05-16T13:00:34;2.95;;;0.70;;
77598;SDS011;66758;52.078;5.070;2023-05-16T13:03:06;5.32;;;1.30;;
77598;SDS011;66758;52.078;5.070;2023-05-16T13:05:32;6.22;;;1.23;;
77598;SDS011;66758;52.078;5.070;2023-05-16T13:07:57;7.00;;;1.57;;
77598;SDS011;66758;52.078;5.070;2023-05-16T13:10:23;5.68;;;1.38;;
77598;SDS011;66758;52.078;5.070;2023-05-16T13:12:49;4.87;;;0.90;;
77598;SDS011;66758;52.078;5.070;2023-05-16T13:15:15;7.53;;;1.00;;
77598;SDS011;66758;52.078;5.070;2023-05-16T13:17:41;4.90;;;1.20;;
77598;SDS011;66758;52.078;5.070;2023-05-16T13:20:08;5.22;;;1.10;;
77598;SDS011;66758;52.078;5.070;2023-05-16T13:22:41;7.38;;;1.10;;
77598;SDS011;66758;52.078;5.070;2023-05-16T13:25:07;5.47;;;1.03;;
77598;SDS011;66758;52.078;5.070;2023-05-16T13:27:33;11.20;;;1.20;;
77598;SDS011;66758;52.078;5.070;2023-05-16T13:29:58;6.47;;;1.10;;
77598;SDS011;66758;52.078;5.070;2023-05-16T13:32:25;5.53;;;1.20;;
77598;SDS011;66758;52.078;5.070;2023-05-16T13:34:50;5.68;;;1.13;;
77598;SDS011;66758;52.078;5.070;2023-05-16T13:37:16;5.60;;;1.10;;
77598;SDS011;66758;52.078;5.070;2023-05-16T13:39:42;4.95;;;0.73;;
77598;SDS011;66758;52.078;5.070;2023-05-16T13:42:08;5.65;;;1.10;;
77598;SDS011;66758;52.078;5.070;2023-05-16T13:44:34;7.70;;;1.13;;
77598;SDS011;66758;52.078;5.070;2023-05-16T13:46:59;5.68;;;1.20;;
77598;SDS011;66758;52.078;5.070;2023-05-16T13:49:25;6.27;;;0.93;;
77598;SDS011;66758;52.078;5.070;2023-05-16T13:51:50;4.68;;;1.10;;
77598;SDS011;66758;52.078;5.070;2023-05-16T13:54:17;3.63;;;0.87;;
77598;SDS011;66758;52.078;5.070;2023-05-16T13:56:44;3.80;;;0.98;;
77598;SDS011;66758;52.078;5.070;2023-05-16T13:59:10;5.32;;;1.45;;
77598;SDS011;66758;52.078;5.070;2023-05-16T14:01:35;8.33;;;1.70;;
77598;SDS011;66758;52.078;5.070;2023-05-16T14:04:01;4.13;;;1.00;;
77598;SDS011;66758;52.078;5.070;2023-05-16T14:06:27;8.37;;;1.10;;
77598;SDS011;66758;52.078;5.070;2023-05-16T14:08:53;3.70;;;1.20;;
77598;SDS011;66758;52.078;5.070;2023-05-16T14:11:18;6.80;;;1.67;;
77598;SDS011;66758;52.078;5.070;2023-05-16T14:13:47;7.47;;;1.20;;
77598;SDS011;66758;52.078;5.070;2023-05-16T14:16:13;4.53;;;1.23;;
77598;SDS011;66758;52.078;5.070;2023-05-16T14:18:38;6.00;;;0.97;;
77598;SDS011;66758;52.078;5.070;2023-05-16T14:21:04;6.03;;;1.50;;
77598;SDS011;66758;52.078;5.070;2023-05-16T14:23:30;9.93;;;1.42;;
77598;SDS011;66758;52.078;5.070;2023-05-16T14:25:55;3.93;;;0.97;;
77598;SDS011;66758;52.078;5.070;2023-05-16T14:28:20;6.47;;;1.30;;
77598;SDS011;66758;52.078;5.070;2023-05-16T14:30:46;5.97;;;1.17;;
77598;SDS011;66758;52.078;5.070;2023-05-16T14:33:11;6.47;;;1.00;;
77598;SDS011;66758;52.078;5.070;2023-05-16T14:35:39;4.23;;;0.70;;
77598;SDS011;66758;52.078;5.070;2023-05-16T14:38:05;7.33;;;1.57;;
77598;SDS011;66758;52.078;5.070;2023-05-16T14:40:31;4.90;;;1.17;;
77598;SDS011;66758;52.078;5.070;2023-05-16T14:42:58;4.15;;;0.90;;
77598;SDS011;66758;52.078;5.070;2023-05-16T14:45:23;5.73;;;1.20;;
77598;SDS011;66758;52.078;5.070;2023-05-16T14:47:49;5.47;;;1.30;;
77598;SDS011;66758;52.078;5.070;2023-05-16T14:50:14;4.20;;;0.90;;
77598;SDS011;66758;52.078;5.070;2023-05-16T14:52:40;12.73;;;1.40;;
77598;SDS011;66758;52.078;5.070;2023-05-16T14:55:05;6.50;;;1.33;;
77598;SDS011;66758;52.078;5.070;2023-05-16T14:57:32;6.00;;;1.00;;
77598;SDS011;66758;52.078;5.070;2023-05-16T14:59:58;5.32;;;1.05;;
77598;SDS011;66758;52.078;5.070;2023-05-16T15:02:26;3.97;;;1.05;;
77598;SDS011;66758;52.078;5.070;2023-05-16T15:04:53;3.83;;;0.87;;
77598;SDS011;66758;52.078;5.070;2023-05-16T15:07:18;6.30;;;1.55;;
77598;SDS011;66758;52.078;5.070;2023-05-16T15:09:45;5.60;;;1.27;;
77598;SDS011;66758;52.078;5.070;2023-05-16T15:12:12;4.88;;;1.08;;